This is the latest recevied weather packets stored in our database for station/object JI1UWB-13. If no packets are shown the sender has not sent any weather packets the latest 10 day(s).
| Time | Temp. | Humidity | Pressure | Rain* | Wind** | Luminosity | Snow |
|---|---|---|---|---|---|---|---|
| 1777420517 | 17.22° C | 100% | 1012.2 hPa | 0 mm | - | - | - |
| 1777417518 | 16.67° C | 100% | 1011.8 hPa | 0 mm | - | - | - |
| 1777414519 | 16.67° C | 100% | 1011.7 hPa | 0 mm | - | - | - |
| 1777413917 | 16.67° C | 100% | 1011.4 hPa | 0 mm | - | - | - |
| 1777410918 | 16.67° C | 100% | 1011 hPa | 0 mm | - | - | - |
| 1777410317 | 16.67° C | 100% | 1010.8 hPa | 0 mm | - | - | - |
| 1777409118 | 16.67° C | 100% | 1010.2 hPa | 0 mm | - | - | - |
| 1777408517 | 16.67° C | 100% | 1010.3 hPa | 0 mm | - | - | - |
| 1777407338 | 16.67° C | 100% | 1010.2 hPa | 0 mm | - | - | - |
| 1777406717 | 16.67° C | 100% | 1009.9 hPa | 0 mm | - | - | - |
| 1777403117 | 16.67° C | 100% | 1009.3 hPa | 0 mm | - | - | - |
| 1777402556 | 17.22° C | 100% | 1009.5 hPa | 0 mm | - | - | - |
| 1777401357 | 17.22° C | 100% | 1008.9 hPa | 0 mm | - | - | - |
| 1777394118 | 19.44° C | 93% | 1009.1 hPa | 0 mm | - | - | - |
| 1777390518 | 20° C | 94% | 1009.2 hPa | 0 mm | - | - | - |
| 1777388116 | 20° C | 88% | 1009 hPa | 0 mm | - | - | - |
| 1777385117 | 20.56° C | 78% | 1009.1 hPa | 0 mm | - | - | - |
| 1777380338 | 20.56° C | 71% | 1008.9 hPa | 0 mm | - | - | - |
| 1777375516 | 21.11° C | 69% | 1008.7 hPa | 0 mm | - | - | - |
| 1777370119 | 21.67° C | 60% | 1007.8 hPa | 0 mm | - | - | - |
| 1777365319 | 23.89° C | 50% | 1007.1 hPa | 0 mm | - | - | - |
| 1777358119 | 25° C | 52% | 1007.6 hPa | 0 mm | - | - | - |
| 1777356916 | 23.33° C | 57% | 1008 hPa | 0 mm | - | - | - |
| 1777356339 | 23.33° C | 56% | 1008.1 hPa | 0 mm | - | - | - |
| 1777352137 | 24.44° C | 48% | 1009.2 hPa | 0 mm | - | - | - |
* Rain latest hour (hover to see other rain measurements)
** Current wind speed in m/s (hover to see current wind gust speed)